Estación de Pirque
Ultimos registro cada 15 minutos 47
| N° | Estación | Fecha / Hora | Temperatura | Humedad | Lluvia | Velocidad | Dirección | Radiación | Presion |
| 47 | Pirque | 02-05-2026 11:30 | 22,5 | 45,8 | 0 | 0 | 275 | 589,4 | 939,2 |
| 46 | Pirque | 02-05-2026 11:15 | 22,3 | 45,8 | 0 | 0 | 275 | 571,9 | 939 |
| 45 | Pirque | 02-05-2026 11:00 | 22 | 49,4 | 0 | 0 | 275 | 548,1 | 939,3 |
| 44 | Pirque | 02-05-2026 10:45 | 21,1 | 52,9 | 0 | 0 | 275 | 520,6 | 939,5 |
| 43 | Pirque | 02-05-2026 10:30 | 21,4 | 55,3 | 0 | 0 | 274 | 491,9 | 939,4 |
| 42 | Pirque | 02-05-2026 10:15 | 20,2 | 57,7 | 0 | 0 | 274 | 456,9 | 939,4 |
| 41 | Pirque | 02-05-2026 10:00 | 17,5 | 67,5 | 0 | 0 | 275 | 418,1 | 939,5 |
| 40 | Pirque | 02-05-2026 09:45 | 17 | 72,3 | 0 | 0 | 275 | 374,4 | 939,7 |
| 39 | Pirque | 02-05-2026 09:30 | 15,9 | 76,2 | 0 | 0 | 275 | 334,4 | 939,9 |
| 38 | Pirque | 02-05-2026 09:15 | 14 | 82,9 | 0 | 0 | 275 | 290,6 | 939,6 |
| 37 | Pirque | 02-05-2026 09:00 | 11,9 | 89,8 | 0 | 0 | 275 | 246,9 | 939,8 |
| 36 | Pirque | 02-05-2026 08:45 | 9,4 | 95,8 | 0 | 0 | 275 | 209,4 | 939,5 |
| 35 | Pirque | 02-05-2026 08:30 | 6,8 | 97,1 | 0 | 0 | 275 | 174,4 | 939,7 |
| 34 | Pirque | 02-05-2026 08:15 | 4,5 | 96,9 | 0 | 0 | 275 | 138,1 | 940,1 |
| 33 | Pirque | 02-05-2026 08:00 | 2,8 | 97,9 | 0 | 0 | 275 | 86,9 | 939,7 |
| 32 | Pirque | 02-05-2026 07:45 | 1,3 | 97,9 | 0 | 0 | 275 | 9,4 | 939,9 |
| 31 | Pirque | 02-05-2026 07:30 | 0,5 | 97,8 | 0 | 0 | 275 | 5,6 | 939,8 |
| 30 | Pirque | 02-05-2026 07:15 | 0,9 | 97,8 | 0 | 0 | 275 | 1,9 | 939,7 |
| 29 | Pirque | 02-05-2026 07:00 | 0,9 | 97,8 | 0 | 0 | 275 | 0,6 | 939,6 |
| 28 | Pirque | 02-05-2026 06:45 | 0,9 | 97,7 | 0 | 0 | 275 | 0,6 | 939,5 |
| 27 | Pirque | 02-05-2026 06:30 | 0,9 | 97,8 | 0 | 0 | 275 | 0,6 | 939,4 |
| 26 | Pirque | 02-05-2026 06:15 | 0,8 | 97,5 | 0 | 0 | 275 | 0,6 | 939,7 |
| 25 | Pirque | 02-05-2026 06:00 | 1 | 97,4 | 0 | 0 | 275 | 0,6 | 939,4 |
| 24 | Pirque | 02-05-2026 05:45 | 1,7 | 97,7 | 0 | 0 | 275 | 0,6 | 939,8 |
| 23 | Pirque | 02-05-2026 05:30 | 1,1 | 97,5 | 0 | 0 | 275 | 0,6 | 939,8 |
| 22 | Pirque | 02-05-2026 05:15 | 1,5 | 97,7 | 0 | 0 | 275 | 0,6 | 940 |
| 21 | Pirque | 02-05-2026 05:00 | 1,7 | 97,5 | 0 | 0 | 275 | 0,6 | 940,2 |
| 20 | Pirque | 02-05-2026 04:45 | 2 | 97,5 | 0 | 0 | 275 | 0,6 | 940,2 |
| 19 | Pirque | 02-05-2026 04:30 | 2 | 97,5 | 0 | 0 | 275 | 0,6 | 940,4 |
| 18 | Pirque | 02-05-2026 04:15 | 2,3 | 97,3 | 0 | 0 | 275 | 0,6 | 940,6 |
| 17 | Pirque | 02-05-2026 04:00 | 2,6 | 97,4 | 0 | 0 | 275 | 0,6 | 940,4 |
| 16 | Pirque | 02-05-2026 03:45 | 2,1 | 97,2 | 0 | 0 | 275 | 0,6 | 940,7 |
| 15 | Pirque | 02-05-2026 03:30 | 2,9 | 97,3 | 0 | 0 | 275 | 0,6 | 940,9 |
| 14 | Pirque | 02-05-2026 03:15 | 2,1 | 97,2 | 0 | 0 | 275 | 0,6 | 941,1 |
| 13 | Pirque | 02-05-2026 03:00 | 3 | 97,2 | 0 | 0 | 275 | 0,6 | 941,3 |
| 12 | Pirque | 02-05-2026 02:45 | 2,4 | 96,9 | 0 | 0 | 275 | 0,6 | 941,4 |
| 11 | Pirque | 02-05-2026 02:30 | 2,7 | 96,9 | 0 | 0 | 275 | 0,6 | 941,4 |
| 10 | Pirque | 02-05-2026 02:15 | 3 | 96,8 | 0 | 0 | 275 | 0,6 | 941,8 |
| 9 | Pirque | 02-05-2026 02:00 | 3,4 | 96,7 | 0 | 0 | 275 | 0,6 | 941,9 |
| 8 | Pirque | 02-05-2026 01:45 | 3,7 | 96,8 | 0 | 0 | 275 | 0,6 | 942,1 |
| 7 | Pirque | 02-05-2026 01:30 | 3,8 | 96,9 | 0 | 0 | 275 | 0,6 | 942 |
| 6 | Pirque | 02-05-2026 01:15 | 3,6 | 96,6 | 0 | 0 | 275 | 0,6 | 942,4 |
| 5 | Pirque | 02-05-2026 01:00 | 3,9 | 96,6 | 0 | 0 | 275 | 0,6 | 942,2 |
| 4 | Pirque | 02-05-2026 00:45 | 3,9 | 96,4 | 0 | 0 | 275 | 0,6 | 942,4 |
| 3 | Pirque | 02-05-2026 00:30 | 4,1 | 96,3 | 0 | 0 | 275 | 0,6 | 942,4 |
| 2 | Pirque | 02-05-2026 00:15 | 4,1 | 96,3 | 0 | 0 | 275 | 0,6 | 942,6 |
| 1 | Pirque | 02-05-2026 00:00 | 4,1 | 96,1 | 0 | 0 | 275 | 0,6 | 942,8 |